N0,26 Fumimaru — JK5398 — position and weather

sailwx.info

Track history (hours):
 
Tides and Currents Weather Stations Pressure Air Temp Water Temp Dewpoint Dewpoint Depression Visibility Wind Speed Wind Dir Waves Ship Positions

N0,26 Fumimaru

Last reported at 2016-Dec-19 09:10 UTC. Time now 2017-Jan-16 10:58 UTC.
Position N 34°33' E 135°15'.
Warning: this ship's position is 28 days out of date.

Length 39 m.

Type: Ship. MMSI: 431400427.

Date/timePositionNaut miles runAvg speedWind from/ knotsBaromVisibWave heightAir tempDewpointWater temp
2016-Dec-19 09:10N 34°33' E 135°15'3 4.1
2016-Dec-19 08:26N 34°35' E 135°17'4 4.1
2016-Dec-19 07:33N 34°38' E 135°19'4 3.6
2016-Dec-19 06:32N 34°41' E 135°21'1 1.4
2016-Dec-19 05:33N 34°43' E 135°20'3 2.6
2016-Dec-19 04:32N 34°40' E 135°22'4 4.4
2016-Dec-19 03:32N 34°40' E 135°27'0 0.0
2016-Dec-19 02:20N 34°40' E 135°27'0 0.0
2016-Dec-19 01:32N 34°40' E 135°27'0 0.0
2016-Dec-19 00:32N 34°40' E 135°27'0 0.0
2016-Dec-18 23:32N 34°40' E 135°27'0 0.0
2016-Dec-18 22:14N 34°40' E 135°27'0 0.0
2016-Dec-18 21:32N 34°40' E 135°27'0 0.0
2016-Dec-18 20:32N 34°40' E 135°27'0 0.0
2016-Dec-18 19:32N 34°40' E 135°27'0 0.0
2016-Dec-18 18:26N 34°40' E 135°27'0 0.0
2016-Dec-18 17:20N 34°40' E 135°27'0 0.0
2016-Dec-18 16:32N 34°40' E 135°27'0 0.0
2016-Dec-18 15:32N 34°40' E 135°27'0 0.0
2016-Dec-18 14:26N 34°40' E 135°27'0 0.0
2016-Dec-18 13:26N 34°40' E 135°27'0 0.0
2016-Dec-18 12:32N 34°40' E 135°27'0 0.0
2016-Dec-18 11:32N 34°40' E 135°27'0 0.0
2016-Dec-18 10:14N 34°40' E 135°27'0 0.0
2016-Dec-18 09:32N 34°40' E 135°27'0 0.0
2016-Dec-18 08:32N 34°40' E 135°27'0 0.0
2016-Dec-18 07:26N 34°40' E 135°27'0 0.0
2016-Dec-17 23:14N 34°40' E 135°27'0 0.0
2016-Dec-17 22:32N 34°40' E 135°27'0 0.0
2016-Dec-17 21:20N 34°40' E 135°27'0 0.0
2016-Dec-17 20:20N 34°40' E 135°27'0 0.0
2016-Dec-17 19:26N 34°40' E 135°27'0 0.0
2016-Dec-17 18:32N 34°40' E 135°27'0 0.0
2016-Dec-17 17:32N 34°40' E 135°27'0 0.0
2016-Dec-17 16:32N 34°40' E 135°27'0 0.0
2016-Dec-17 15:20N 34°40' E 135°27'0 0.0
2016-Dec-17 14:32N 34°40' E 135°27'0 0.0
2016-Dec-17 13:26N 34°40' E 135°27'0 0.0
2016-Dec-17 12:32N 34°40' E 135°27'0 0.0
2016-Dec-17 11:32N 34°40' E 135°27'0 0.0
2016-Dec-17 10:32N 34°40' E 135°27'0 0.0
2016-Dec-17 09:26N 34°40' E 135°27'0 0.0
2016-Dec-17 08:20N 34°40' E 135°27'0 0.0
2016-Dec-16 23:20N 34°40' E 135°27'0 0.0
2016-Dec-16 22:20N 34°40' E 135°27'0 0.0
2016-Dec-16 21:14N 34°40' E 135°27'0 0.0
2016-Dec-16 20:32N 34°40' E 135°27'0 0.0
2016-Dec-16 18:26N 34°40' E 135°27'0 0.0
2016-Dec-16 11:26N 34°40' E 135°27'7 7.0
2016-Dec-16 10:25N 34°36' E 135°20'220 6.1
2016-Dec-14 22:30N 35°24' E 139°43'1110.6
2016-Dec-14 21:28N 35°33' E 139°50'4 0.1
2016-Dec-13 02:32N 35°30' E 139°52'8 8.1
2016-Dec-13 01:33N 35°26' E 139°44'6 4.7
2016-Dec-13 00:20N 35°23' E 139°38'4 5.7
2016-Dec-12 23:33N 35°20' E 139°42'3 0.9
2016-Dec-12 20:23N 35°18' E 139°39'  
Track history (hours):
 
Tides and Currents Weather Stations Pressure Air Temp Water Temp Dewpoint Dewpoint Depression Visibility Wind Speed Wind Dir Waves Ship Positions

N0,26 Fumimaru

Last reported at 2016-Dec-19 09:10 UTC. Time now 2017-Jan-16 10:58 UTC.
Position N 34°33' E 135°15'.
Warning: this ship's position is 28 days out of date.

Length 39 m.

Type: Ship. MMSI: 431400427.

Date/timePositionNaut miles runAvg speedWind from/ knotsBaromVisibWave heightAir tempDewpointWater temp
2016-Dec-19 09:10N 34°33' E 135°15'3 4.1
2016-Dec-19 08:26N 34°35' E 135°17'4 4.1
2016-Dec-19 07:33N 34°38' E 135°19'4 3.6
2016-Dec-19 06:32N 34°41' E 135°21'1 1.4
2016-Dec-19 05:33N 34°43' E 135°20'3 2.6
2016-Dec-19 04:32N 34°40' E 135°22'4 4.4
2016-Dec-19 03:32N 34°40' E 135°27'0 0.0
2016-Dec-19 02:20N 34°40' E 135°27'0 0.0
2016-Dec-19 01:32N 34°40' E 135°27'0 0.0
2016-Dec-19 00:32N 34°40' E 135°27'0 0.0
2016-Dec-18 23:32N 34°40' E 135°27'0 0.0
2016-Dec-18 22:14N 34°40' E 135°27'0 0.0
2016-Dec-18 21:32N 34°40' E 135°27'0 0.0
2016-Dec-18 20:32N 34°40' E 135°27'0 0.0
2016-Dec-18 19:32N 34°40' E 135°27'0 0.0
2016-Dec-18 18:26N 34°40' E 135°27'0 0.0
2016-Dec-18 17:20N 34°40' E 135°27'0 0.0
2016-Dec-18 16:32N 34°40' E 135°27'0 0.0
2016-Dec-18 15:32N 34°40' E 135°27'0 0.0
2016-Dec-18 14:26N 34°40' E 135°27'0 0.0
2016-Dec-18 13:26N 34°40' E 135°27'0 0.0
2016-Dec-18 12:32N 34°40' E 135°27'0 0.0
2016-Dec-18 11:32N 34°40' E 135°27'0 0.0
2016-Dec-18 10:14N 34°40' E 135°27'0 0.0
2016-Dec-18 09:32N 34°40' E 135°27'0 0.0
2016-Dec-18 08:32N 34°40' E 135°27'0 0.0
2016-Dec-18 07:26N 34°40' E 135°27'0 0.0
2016-Dec-17 23:14N 34°40' E 135°27'0 0.0
2016-Dec-17 22:32N 34°40' E 135°27'0 0.0
2016-Dec-17 21:20N 34°40' E 135°27'0 0.0
2016-Dec-17 20:20N 34°40' E 135°27'0 0.0
2016-Dec-17 19:26N 34°40' E 135°27'0 0.0
2016-Dec-17 18:32N 34°40' E 135°27'0 0.0
2016-Dec-17 17:32N 34°40' E 135°27'0 0.0
2016-Dec-17 16:32N 34°40' E 135°27'0 0.0
2016-Dec-17 15:20N 34°40' E 135°27'0 0.0
2016-Dec-17 14:32N 34°40' E 135°27'0 0.0
2016-Dec-17 13:26N 34°40' E 135°27'0 0.0
2016-Dec-17 12:32N 34°40' E 135°27'0 0.0
2016-Dec-17 11:32N 34°40' E 135°27'0 0.0
2016-Dec-17 10:32N 34°40' E 135°27'0 0.0
2016-Dec-17 09:26N 34°40' E 135°27'0 0.0
2016-Dec-17 08:20N 34°40' E 135°27'0 0.0
2016-Dec-16 23:20N 34°40' E 135°27'0 0.0
2016-Dec-16 22:20N 34°40' E 135°27'0 0.0
2016-Dec-16 21:14N 34°40' E 135°27'0 0.0
2016-Dec-16 20:32N 34°40' E 135°27'0 0.0
2016-Dec-16 18:26N 34°40' E 135°27'0 0.0
2016-Dec-16 11:26N 34°40' E 135°27'7 7.0
2016-Dec-16 10:25N 34°36' E 135°20'220 6.1
2016-Dec-14 22:30N 35°24' E 139°43'1110.6
2016-Dec-14 21:28N 35°33' E 139°50'4 0.1
2016-Dec-13 02:32N 35°30' E 139°52'8 8.1
2016-Dec-13 01:33N 35°26' E 139°44'6 4.7
2016-Dec-13 00:20N 35°23' E 139°38'4 5.7
2016-Dec-12 23:33N 35°20' E 139°42'3 0.9
2016-Dec-12 20:23N 35°18' E 139°39'  

Dump ship's entire track history